Station: Gudai-Darri Mine  

  Atmospheric Gas Attenuation - ITU Rec 676-11   ----------------- dB/100km -----------------
Date Time Temp RH % AH g/m3 Dew Point Wind Direction Speed kph Gust kph Barometer mB Rainfall Since 9am 24GHz 47GHz 76GHz 122GHz 134GHz 241GHz
08/05 09:18 18.9 36 5.83 3.8 32 37 1013.1 0 13.5 20.5 27.5 71.7 59.8 203.6
08/05 09:10 19.3 36 5.97 3.9 30 33 1013.1 0 13.8 20.6 27.8 72.6 61.0 208.1
08/05 09:00 18.6 38 6.05 4 32 43 1013.1 0 14.0 20.8 28.3 73.9 62.4 213.0
08/05 08:50 18.3 38 5.94 4 30 35 1013.1 0 13.8 20.8 28.1 73.2 61.4 209.4
08/05 08:40 18.4 38 5.98 4 28 35 1013.1 0 13.9 20.8 28.2 73.5 61.8 210.7
08/05 08:30 18.2 39 6.06 4 35 44 1013.1 0 14.0 20.9 28.5 74.4 62.9 214.4
08/05 08:20 17.9 40 6.11 4.1 32 41 1013.1 0 14.1 21.1 28.8 75.1 63.7 217.2
08/05 08:10 17.6 40 6 4.1 28 33 1013.1 0 13.9 21.0 28.5 74.4 62.6 213.6
08/05 08:00 17.1 42 6.11 4.1 33 46 1013.1 0 14.2 21.3 29.1 75.8 64.3 219.3
08/05 07:50 17.1 41 5.97 4 33 39 1013.1 0 13.9 21.1 28.6 74.5 62.7 213.7
08/05 07:40 16.9 42 6.04 4 35 39 1013.1 0 14.0 21.2 28.9 75.4 63.7 217.1
08/05 07:30 16.9 42 6.04 3.9 28 39 1013.1 0 14.0 21.2 28.9 75.4 63.7 217.1
08/05 07:20 16.6 42 5.93 3.7 33 39 1013.1 0 13.8 21.1 28.6 74.6 62.6 213.4
08/05 07:10 16.4 42 5.86 3.6 33 39 1013.1 0 13.7 21.1 28.5 74.2 62.0 211.1
08/05 07:00 16.3 42 5.83 3.4 28 35 1013.1 0 13.6 21.1 28.4 74.0 61.7 210.2
08/05 06:50 16.1 42 5.76 3.3 28 32 1013.1 0 13.5 21.0 28.2 73.5 61.1 207.8
08/05 06:40 16.1 41 5.62 3.1 24 32 1013.1 0 13.2 20.8 27.7 72.2 59.5 202.2
08/05 06:30 16.1 41 5.62 2.9 28 43 1013.1 0 13.2 20.8 27.7 72.2 59.5 202.2
08/05 06:20 16.2 40 5.52 2.8 26 30 1013.1 0 13.0 20.6 27.3 71.2 58.2 198.0
08/05 06:10 16.3 40 5.55 2.7 24 32 1013.1 0 13.0 20.7 27.4 71.4 58.5 198.9
08/05 06:00 16.4 39 5.44 2.4 28 39 1013.1 0 12.8 20.5 27.0 70.3 57.2 194.3
08/05 05:50 16.5 38 5.34 2.3 28 33 1013.1 0 12.6 20.3 26.6 69.3 56.0 190.1
08/05 05:40 16.6 37 5.23 2.1 30 33 1013.1 0 12.3 20.2 26.2 68.2 54.7 185.6
08/05 05:30 16.7 37 5.26 2 28 39 1013.1 0 12.4 20.2 26.3 68.4 55.0 186.5
08/05 05:20 16.9 36 5.18 1.8 28 33 1013.1 0 12.2 20.0 26.0 67.5 53.9 182.9
08/05 05:10 16.9 35 5.03 1.6 28 33 1013.1 0 11.9 19.8 25.5 66.2 52.3 177.1
08/05 05:00 17.1 35 5.09 1.5 28 41 1013.1 0 12.0 19.9 25.6 66.5 52.8 179.0
08/05 04:50 17.2 34 4.98 1.2 32 35 1013.1 0 11.8 19.7 25.2 65.5 51.5 174.5
08/05 04:40 17.4 33 4.89 1.1 26 32 1013.1 0 11.6 19.5 24.8 64.5 50.4 170.6
08/05 04:30 17.5 33 4.92 1 30 33 1013.1 0 11.7 19.5 24.9 64.7 50.7 171.6
08/05 04:20 17.6 32 4.8 0.9 32 37 1013.1 0 11.4 19.4 24.5 63.6 49.3 166.8
08/05 04:10 17.8 32 4.86 0.9 28 32 1013.1 0 11.5 19.4 24.6 64.0 49.9 168.7
08/05 04:00 17.8 32 4.86 0.9 28 41 1013.1 0 11.5 19.4 24.6 64.0 49.9 168.7
08/05 03:50 17.9 31 4.73 0.8 30 37 1013.1 0 11.2 19.2 24.2 62.8 48.4 163.5
08/05 03:40 18 31 4.76 0.8 28 32 1013.1 0 11.3 19.2 24.2 62.9 48.7 164.5
08/05 03:30 18.1 31 4.79 0.7 28 37 1013.1 0 11.4 19.2 24.3 63.1 48.9 165.4
08/05 03:20 18.2 31 4.82 0.8 26 35 1013.1 0 11.4 19.3 24.4 63.3 49.2 166.4
08/05 03:10 18.3 30 4.69 0.7 30 37 1013.1 0 11.2 19.1 23.9 62.1 47.7 161.3
08/05 03:00 18.5 30 4.75 0.6 30 41 1013.1 0 11.3 19.1 24.1 62.5 48.3 163.1
08/05 02:50 18.6 30 4.77 0.6 30 33 1013.1 0 11.3 19.1 24.1 62.6 48.4 163.7
08/05 02:40 18.7 29 4.64 0.5 28 32 1013.1 0 11.0 18.9 23.7 61.4 47.0 158.6
08/05 02:30 18.7 29 4.64 0.3 24 32 1013.1 0 11.0 18.9 23.7 61.4 47.0 158.6
08/05 02:20 18.8 29 4.67 0.4 24 30 1013.1 0 11.1 19.0 23.7 61.6 47.2 159.5
08/05 02:10 18.8 29 4.67 0.3 26 32 1013.1 0 11.1 19.0 23.7 61.6 47.2 159.5
08/05 02:00 18.9 29 4.7 0.5 24 33 1013.1 0 11.2 19.0 23.8 61.7 47.5 160.5
08/05 01:50 19 28 4.56 0.2 24 33 1013.1 0 10.9 18.8 23.3 60.5 46.0 155.1
08/05 01:40 19.2 27 4.45 0.1 22 30 1013.1 0 10.6 18.6 22.9 59.4 44.7 150.7
08/05 01:30 19.2 28 4.62 0.3 24 30 1013.1 0 11.0 18.8 23.5 60.8 46.5 156.9
08/05 01:20 19.4 27 4.5 0 24 28 1013.1 0 10.7 18.6 23.0 59.7 45.1 152.1
08/05 01:10 19.4 27 4.5 0 24 30 1013.1 0 10.7 18.6 23.0 59.7 45.1 152.1
08/05 01:00 19.5 27 4.53 0 22 32 1013.1 0 10.8 18.6 23.1 59.9 45.4 153.1
08/05 00:50 19.6 26 4.39 -0.1 20 24 1013.1 0 10.5 18.4 22.6 58.6 43.9 147.7
08/05 00:39 19.8 26 4.44 -0.2 22 28 1013.1 0 10.6 18.5 22.7 58.9 44.3 149.2
08/05 00:30 19.9 26 4.47 -0.1 24 35 1013.1 0 10.6 18.5 22.8 59.1 44.5 150.1
08/05 00:20 19.9 25 4.29 -0.3 22 28 1013.1 0 10.3 18.2 22.2 57.6 42.7 143.6
08/05 00:10 19.9 25 4.29 -0.4 22 26 1013.1 0 10.3 18.2 22.2 57.6 42.7 143.6
08/05 00:00 19.9 26 4.47 -0.1 20 26 1013.1 0 10.6 18.5 22.8 59.1 44.5 150.1
07/05 23:50 19.9 25 4.29 -0.4 22 26 1013.1 0 10.3 18.2 22.2 57.6 42.7 143.6
07/05 23:40 19.9 25 4.29 -0.4 22 26 1013.1 0 10.3 18.2 22.2 57.6 42.7 143.6
07/05 23:30 19.8 26 4.44 -0.2 19 24 1013.1 0 10.6 18.5 22.7 58.9 44.3 149.2
07/05 23:20 19.9 25 4.29 -0.5 19 22 1013.1 0 10.3 18.2 22.2 57.6 42.7 143.6
07/05 23:10 20.2 25 4.37 -0.5 19 24 1013.1 0 10.4 18.3 22.4 58.0 43.3 146.0
07/05 23:00 20.1 25 4.35 -0.5 17 22 1013.1 0 10.4 18.3 22.4 57.9 43.2 145.4
07/05 22:50 20.3 24 4.22 -0.5 15 19 1013.1 0 10.1 18.1 21.9 56.7 41.8 140.4
07/05 22:40 20.7 24 4.32 -0.5 19 24 1013.1 0 10.3 18.1 22.1 57.3 42.6 143.3
07/05 22:30 21.1 24 4.42 -0.2 20 28 1013.1 0 10.5 18.2 22.3 57.8 43.4 146.2
07/05 22:20 21 24 4.4 -0.2 22 26 1013.1 0 10.5 18.2 22.3 57.7 43.2 145.7
07/05 22:07 20.5 25 4.45 0.1 15 17 1013.1 0 10.6 18.3 22.6 58.5 44.0 148.3
07/05 22:00 20.6 26 4.65 0.4 15 20 1013.1 0 11.0 18.6 23.2 60.1 46.0 155.4
07/05 21:50 20.5 26 4.63 0.4 17 19 1013.1 0 11.0 18.6 23.1 60.0 45.9 154.9
07/05 21:40 20.5 26 4.63 0.6 15 17 1013.1 0 11.0 18.6 23.1 60.0 45.9 154.9
07/05 21:30 20.7 26 4.68 0.5 15 19 1013.1 0 11.1 18.6 23.2 60.3 46.3 156.3
07/05 21:20 20.9 26 4.73 0.8 15 19 1013.1 0 11.2 18.6 23.3 60.5 46.7 157.8
07/05 21:10 21 26 4.76 0.8 19 22 1013.1 0 11.2 18.6 23.4 60.7 46.9 158.7
07/05 21:00 21 26 4.76 0.8 17 20 1013.1 0 11.2 18.6 23.4 60.7 46.9 158.7
07/05 20:50 21.1 26 4.79 0.9 15 19 1013.1 0 11.3 18.6 23.5 60.9 47.2 159.6
07/05 20:40 21.3 25 4.66 0.9 17 19 1013.1 0 11.0 18.4 23.0 59.7 45.7 154.5
07/05 20:30 21.6 26 4.93 1.3 15 20 1013.1 0 11.6 18.7 23.8 61.7 48.3 163.7
07/05 20:20 21.9 25 4.82 1 17 19 1013.1 0 11.3 18.5 23.3 60.5 47.0 159.2
07/05 20:10 22 25 4.85 1.1 17 19 1013.1 0 11.4 18.5 23.4 60.7 47.3 160.1
07/05 20:00 22.2 25 4.91 1.3 17 20 1013.1 0 11.5 18.6 23.5 61.1 47.8 161.8
07/05 19:49 22.4 25 4.96 1.3 17 19 1013.1 0 11.6 18.6 23.6 61.3 48.2 163.3
07/05 19:39 22.6 24 4.82 1.4 19 22 1013.1 0 11.3 18.4 23.1 60.0 46.6 157.8
07/05 19:30 22.8 25 5.08 1.8 20 26 1013.1 0 11.8 18.7 23.9 62.0 49.2 166.8
07/05 19:20 22.9 25 5.11 1.8 20 22 1013.1 0 11.9 18.7 24.0 62.2 49.4 167.7
07/05 19:10 23 25 5.14 1.9 19 20 1013.1 0 11.9 18.7 24.0 62.4 49.7 168.6
07/05 19:00 23.2 25 5.2 2.1 19 24 1013.1 0 12.1 18.8 24.1 62.7 50.2 170.3
07/05 18:50 23.4 24 5.05 2.1 19 24 1013.1 0 11.7 18.5 23.6 61.4 48.5 164.5
07/05 18:40 23.6 24 5.1 2.1 20 24 1013.1 0 11.8 18.6 23.7 61.6 48.9 165.9
07/05 18:30 23.8 24 5.16 2 22 30 1013.1 0 12.0 18.6 23.9 62.0 49.4 167.7
07/05 18:20 23.9 24 5.19 2.2 20 26 1013.1 0 12.0 18.6 23.9 62.1 49.6 168.6
07/05 18:10 24.1 24 5.25 2.2 24 30 1013.1 0 12.1 18.6 24.0 62.5 50.1 170.3
07/05 18:00 24.2 24 5.28 2.4 26 33 1013.1 0 12.2 18.7 24.1 62.7 50.4 171.2
07/05 17:50 24.3 23 5.09 2.2 30 33 1013.1 0 11.8 18.4 23.5 61.0 48.4 164.2
07/05 17:40 24.4 23 5.12 2.1 30 32 1013.1 0 11.9 18.4 23.6 61.2 48.6 165.1
07/05 17:30 24.9 23 5.26 2.4 30 41 1013.1 0 12.1 18.5 23.9 62.0 49.7 169.0
07/05 17:20 24.9 22 5.04 2.1 28 33 1013.1 0 11.7 18.2 23.2 60.2 47.5 161.3
07/05 17:10 25.1 22 5.09 2 26 32 1013.1 0 11.8 18.3 23.3 60.5 47.9 162.7
07/05 17:00 25.2 22 5.12 2 30 39 1013.1 0 11.8 18.3 23.3 60.6 48.2 163.5
07/05 16:50 25.4 21 4.94 2 24 33 1013.1 0 11.5 18.0 22.8 59.0 46.3 156.9

Last Refresh: 08-May-2026 11:04:11

Bureau of Meteorology